sensor_id;sensor_type;location;lat;lon;timestamp;temperature;humidity
10390;DHT22;5241;47.830;12.972;2022-07-12T00:01:03;17.00;99.90
10390;DHT22;5241;47.830;12.972;2022-07-12T00:03:28;17.00;99.90
10390;DHT22;5241;47.830;12.972;2022-07-12T00:05:54;16.90;99.90
10390;DHT22;5241;47.830;12.972;2022-07-12T00:08:20;17.00;99.90
10390;DHT22;5241;47.830;12.972;2022-07-12T00:10:46;17.00;99.90
10390;DHT22;5241;47.830;12.972;2022-07-12T00:13:11;16.90;99.90
10390;DHT22;5241;47.830;12.972;2022-07-12T00:15:37;16.90;99.90
10390;DHT22;5241;47.830;12.972;2022-07-12T00:18:03;16.90;99.90
10390;DHT22;5241;47.830;12.972;2022-07-12T00:20:28;16.90;99.90
10390;DHT22;5241;47.830;12.972;2022-07-12T00:22:54;16.90;99.90
10390;DHT22;5241;47.830;12.972;2022-07-12T00:25:20;16.90;99.90
10390;DHT22;5241;47.830;12.972;2022-07-12T00:27:46;16.90;99.90
10390;DHT22;5241;47.830;12.972;2022-07-12T00:30:11;16.90;99.90
10390;DHT22;5241;47.830;12.972;2022-07-12T00:32:37;16.90;99.90
10390;DHT22;5241;47.830;12.972;2022-07-12T00:35:04;16.80;99.90
10390;DHT22;5241;47.830;12.972;2022-07-12T00:37:31;16.80;99.90
10390;DHT22;5241;47.830;12.972;2022-07-12T00:39:57;16.80;99.90
10390;DHT22;5241;47.830;12.972;2022-07-12T00:42:22;16.70;99.90
10390;DHT22;5241;47.830;12.972;2022-07-12T00:44:48;16.70;99.90
10390;DHT22;5241;47.830;12.972;2022-07-12T00:47:38;16.80;99.90
10390;DHT22;5241;47.830;12.972;2022-07-12T00:50:16;16.80;99.90
10390;DHT22;5241;47.830;12.972;2022-07-12T00:52:44;16.80;99.90
10390;DHT22;5241;47.830;12.972;2022-07-12T00:55:10;16.70;99.90
10390;DHT22;5241;47.830;12.972;2022-07-12T00:57:37;16.70;99.90
10390;DHT22;5241;47.830;12.972;2022-07-12T01:00:05;16.60;99.90
10390;DHT22;5241;47.830;12.972;2022-07-12T01:02:32;16.60;99.90
10390;DHT22;5241;47.830;12.972;2022-07-12T01:04:58;16.60;99.90
10390;DHT22;5241;47.830;12.972;2022-07-12T01:07:26;16.60;99.90
10390;DHT22;5241;47.830;12.972;2022-07-12T01:09:55;16.60;99.90
10390;DHT22;5241;47.830;12.972;2022-07-12T01:12:21;16.50;99.90
10390;DHT22;5241;47.830;12.972;2022-07-12T01:14:49;16.60;99.90
10390;DHT22;5241;47.830;12.972;2022-07-12T01:17:17;16.60;99.90
10390;DHT22;5241;47.830;12.972;2022-07-12T01:19:44;16.60;99.90
10390;DHT22;5241;47.830;12.972;2022-07-12T01:22:10;16.50;99.90
10390;DHT22;5241;47.830;12.972;2022-07-12T01:24:36;16.50;99.90
10390;DHT22;5241;47.830;12.972;2022-07-12T01:27:03;16.50;99.90
10390;DHT22;5241;47.830;12.972;2022-07-12T01:29:30;16.50;99.90
10390;DHT22;5241;47.830;12.972;2022-07-12T01:31:56;16.60;99.90
10390;DHT22;5241;47.830;12.972;2022-07-12T01:34:42;16.60;99.90
10390;DHT22;5241;47.830;12.972;2022-07-12T01:37:09;16.50;99.90
10390;DHT22;5241;47.830;12.972;2022-07-12T01:39:35;16.50;99.90
10390;DHT22;5241;47.830;12.972;2022-07-12T01:42:01;16.50;99.90
10390;DHT22;5241;47.830;12.972;2022-07-12T01:44:26;16.50;99.90
10390;DHT22;5241;47.830;12.972;2022-07-12T01:46:52;16.50;99.90
10390;DHT22;5241;47.830;12.972;2022-07-12T01:49:21;16.40;99.90
10390;DHT22;5241;47.830;12.972;2022-07-12T01:51:46;16.40;99.90
10390;DHT22;5241;47.830;12.972;2022-07-12T01:54:12;16.40;99.90
10390;DHT22;5241;47.830;12.972;2022-07-12T01:56:37;16.40;99.90
10390;DHT22;5241;47.830;12.972;2022-07-12T01:59:03;16.30;99.90
10390;DHT22;5241;47.830;12.972;2022-07-12T02:01:29;16.40;99.90
10390;DHT22;5241;47.830;12.972;2022-07-12T02:03:55;16.40;99.90
10390;DHT22;5241;47.830;12.972;2022-07-12T02:06:21;16.40;99.90
10390;DHT22;5241;47.830;12.972;2022-07-12T02:08:47;16.40;99.90
10390;DHT22;5241;47.830;12.972;2022-07-12T02:11:12;16.40;99.90
10390;DHT22;5241;47.830;12.972;2022-07-12T02:13:38;16.40;99.90
10390;DHT22;5241;47.830;12.972;2022-07-12T02:16:04;16.40;99.90
10390;DHT22;5241;47.830;12.972;2022-07-12T02:18:32;16.40;99.90
10390;DHT22;5241;47.830;12.972;2022-07-12T02:20:58;16.40;99.90
10390;DHT22;5241;47.830;12.972;2022-07-12T02:23:23;16.40;99.90
10390;DHT22;5241;47.830;12.972;2022-07-12T02:25:49;16.40;99.90
10390;DHT22;5241;47.830;12.972;2022-07-12T02:28:14;16.40;99.90
10390;DHT22;5241;47.830;12.972;2022-07-12T02:30:40;16.40;99.90
10390;DHT22;5241;47.830;12.972;2022-07-12T02:33:06;16.30;99.90
10390;DHT22;5241;47.830;12.972;2022-07-12T02:35:31;16.30;99.90
10390;DHT22;5241;47.830;12.972;2022-07-12T02:37:57;16.30;99.90
10390;DHT22;5241;47.830;12.972;2022-07-12T02:40:22;16.40;99.90
10390;DHT22;5241;47.830;12.972;2022-07-12T02:43:06;16.40;99.90
10390;DHT22;5241;47.830;12.972;2022-07-12T02:45:32;16.40;99.90
10390;DHT22;5241;47.830;12.972;2022-07-12T02:47:57;16.40;99.90
10390;DHT22;5241;47.830;12.972;2022-07-12T02:50:23;16.20;99.90
10390;DHT22;5241;47.830;12.972;2022-07-12T02:52:49;16.20;99.90
10390;DHT22;5241;47.830;12.972;2022-07-12T02:55:14;16.20;99.90
10390;DHT22;5241;47.830;12.972;2022-07-12T02:57:40;16.20;99.90
10390;DHT22;5241;47.830;12.972;2022-07-12T03:00:06;16.20;99.90
10390;DHT22;5241;47.830;12.972;2022-07-12T03:02:33;16.10;99.90
10390;DHT22;5241;47.830;12.972;2022-07-12T03:04:58;16.20;99.90
10390;DHT22;5241;47.830;12.972;2022-07-12T03:07:24;16.20;99.90
10390;DHT22;5241;47.830;12.972;2022-07-12T03:09:49;16.20;99.90
10390;DHT22;5241;47.830;12.972;2022-07-12T03:12:15;16.20;99.90
10390;DHT22;5241;47.830;12.972;2022-07-12T03:14:40;16.30;99.90
10390;DHT22;5241;47.830;12.972;2022-07-12T03:17:06;16.30;99.90
10390;DHT22;5241;47.830;12.972;2022-07-12T03:19:32;16.30;99.90
10390;DHT22;5241;47.830;12.972;2022-07-12T03:21:57;16.20;99.90
10390;DHT22;5241;47.830;12.972;2022-07-12T03:24:23;16.10;99.90
10390;DHT22;5241;47.830;12.972;2022-07-12T03:26:48;16.20;99.90
10390;DHT22;5241;47.830;12.972;2022-07-12T03:29:14;16.20;99.90
10390;DHT22;5241;47.830;12.972;2022-07-12T03:31:40;16.20;99.90
10390;DHT22;5241;47.830;12.972;2022-07-12T03:34:06;16.20;99.90
10390;DHT22;5241;47.830;12.972;2022-07-12T03:36:32;16.20;99.90
10390;DHT22;5241;47.830;12.972;2022-07-12T03:38:57;16.20;99.90
10390;DHT22;5241;47.830;12.972;2022-07-12T03:41:23;16.20;99.90
10390;DHT22;5241;47.830;12.972;2022-07-12T03:43:49;16.20;99.90
10390;DHT22;5241;47.830;12.972;2022-07-12T03:46:15;16.20;99.90
10390;DHT22;5241;47.830;12.972;2022-07-12T03:48:40;16.20;99.90
10390;DHT22;5241;47.830;12.972;2022-07-12T03:51:06;16.20;99.90
10390;DHT22;5241;47.830;12.972;2022-07-12T03:53:31;16.20;99.90
10390;DHT22;5241;47.830;12.972;2022-07-12T03:55:57;16.20;99.90
10390;DHT22;5241;47.830;12.972;2022-07-12T03:58:22;16.20;99.90
10390;DHT22;5241;47.830;12.972;2022-07-12T04:00:48;16.20;99.90
10390;DHT22;5241;47.830;12.972;2022-07-12T04:03:13;16.20;99.90
10390;DHT22;5241;47.830;12.972;2022-07-12T04:05:39;16.20;99.90
10390;DHT22;5241;47.830;12.972;2022-07-12T04:08:05;16.30;99.90
10390;DHT22;5241;47.830;12.972;2022-07-12T04:10:31;16.20;99.90
10390;DHT22;5241;47.830;12.972;2022-07-12T04:12:57;16.30;99.90
10390;DHT22;5241;47.830;12.972;2022-07-12T04:15:22;16.20;99.90
10390;DHT22;5241;47.830;12.972;2022-07-12T04:17:48;16.30;99.90
10390;DHT22;5241;47.830;12.972;2022-07-12T04:20:13;16.30;99.90
10390;DHT22;5241;47.830;12.972;2022-07-12T04:22:39;16.40;99.90
10390;DHT22;5241;47.830;12.972;2022-07-12T04:25:06;16.40;99.90
10390;DHT22;5241;47.830;12.972;2022-07-12T04:27:32;16.40;99.90
10390;DHT22;5241;47.830;12.972;2022-07-12T04:29:57;16.50;99.90
10390;DHT22;5241;47.830;12.972;2022-07-12T04:32:23;16.50;99.90
10390;DHT22;5241;47.830;12.972;2022-07-12T04:34:48;16.60;99.90
10390;DHT22;5241;47.830;12.972;2022-07-12T04:37:14;16.60;99.90
10390;DHT22;5241;47.830;12.972;2022-07-12T04:39:39;16.60;99.90
10390;DHT22;5241;47.830;12.972;2022-07-12T04:42:05;16.60;99.90
10390;DHT22;5241;47.830;12.972;2022-07-12T04:44:31;16.60;99.90
10390;DHT22;5241;47.830;12.972;2022-07-12T04:46:56;16.60;99.90
10390;DHT22;5241;47.830;12.972;2022-07-12T04:49:22;16.70;99.90
10390;DHT22;5241;47.830;12.972;2022-07-12T04:51:47;16.80;99.90
10390;DHT22;5241;47.830;12.972;2022-07-12T04:54:13;16.80;99.90
10390;DHT22;5241;47.830;12.972;2022-07-12T04:56:38;16.80;99.90
10390;DHT22;5241;47.830;12.972;2022-07-12T04:59:04;16.90;99.90
10390;DHT22;5241;47.830;12.972;2022-07-12T05:01:30;17.00;99.90
10390;DHT22;5241;47.830;12.972;2022-07-12T05:03:55;17.10;99.90
10390;DHT22;5241;47.830;12.972;2022-07-12T05:06:21;17.20;99.90
10390;DHT22;5241;47.830;12.972;2022-07-12T05:08:48;17.30;99.90
10390;DHT22;5241;47.830;12.972;2022-07-12T05:11:14;17.40;99.90
10390;DHT22;5241;47.830;12.972;2022-07-12T05:13:39;17.50;99.90
10390;DHT22;5241;47.830;12.972;2022-07-12T05:16:07;17.40;99.90
10390;DHT22;5241;47.830;12.972;2022-07-12T05:18:33;17.50;99.90
10390;DHT22;5241;47.830;12.972;2022-07-12T05:20:59;17.60;99.90
10390;DHT22;5241;47.830;12.972;2022-07-12T05:23:25;17.70;99.90
10390;DHT22;5241;47.830;12.972;2022-07-12T05:25:50;17.70;99.90
10390;DHT22;5241;47.830;12.972;2022-07-12T05:28:16;17.90;99.90
10390;DHT22;5241;47.830;12.972;2022-07-12T05:30:42;18.00;99.90
10390;DHT22;5241;47.830;12.972;2022-07-12T05:33:09;18.10;99.90
10390;DHT22;5241;47.830;12.972;2022-07-12T05:35:34;18.10;99.90
10390;DHT22;5241;47.830;12.972;2022-07-12T05:38:00;18.30;99.90
10390;DHT22;5241;47.830;12.972;2022-07-12T05:40:26;18.40;99.90
10390;DHT22;5241;47.830;12.972;2022-07-12T05:42:52;18.40;99.90
10390;DHT22;5241;47.830;12.972;2022-07-12T05:45:18;18.60;99.90
10390;DHT22;5241;47.830;12.972;2022-07-12T05:47:43;18.70;99.90
10390;DHT22;5241;47.830;12.972;2022-07-12T05:50:09;18.60;99.90
10390;DHT22;5241;47.830;12.972;2022-07-12T05:52:34;18.60;99.90
10390;DHT22;5241;47.830;12.972;2022-07-12T05:55:18;18.60;99.90
10390;DHT22;5241;47.830;12.972;2022-07-12T05:57:44;18.90;99.90
10390;DHT22;5241;47.830;12.972;2022-07-12T06:00:10;19.20;99.90
10390;DHT22;5241;47.830;12.972;2022-07-12T06:02:35;19.40;99.90
10390;DHT22;5241;47.830;12.972;2022-07-12T06:05:01;19.60;99.90
10390;DHT22;5241;47.830;12.972;2022-07-12T06:07:26;19.90;99.90
10390;DHT22;5241;47.830;12.972;2022-07-12T06:09:52;19.90;99.90
10390;DHT22;5241;47.830;12.972;2022-07-12T06:12:18;20.10;99.90
10390;DHT22;5241;47.830;12.972;2022-07-12T06:14:43;20.20;99.90
10390;DHT22;5241;47.830;12.972;2022-07-12T06:17:09;20.30;99.90
10390;DHT22;5241;47.830;12.972;2022-07-12T06:19:34;20.40;99.90
10390;DHT22;5241;47.830;12.972;2022-07-12T06:22:00;20.40;99.90
10390;DHT22;5241;47.830;12.972;2022-07-12T06:24:26;20.60;99.90
10390;DHT22;5241;47.830;12.972;2022-07-12T06:26:51;20.80;99.90
10390;DHT22;5241;47.830;12.972;2022-07-12T06:29:17;21.00;99.90
10390;DHT22;5241;47.830;12.972;2022-07-12T06:31:42;21.20;99.90
10390;DHT22;5241;47.830;12.972;2022-07-12T06:34:08;21.50;99.90
10390;DHT22;5241;47.830;12.972;2022-07-12T06:36:33;22.50;99.90
10390;DHT22;5241;47.830;12.972;2022-07-12T06:38:59;23.30;99.90
10390;DHT22;5241;47.830;12.972;2022-07-12T06:41:24;23.20;99.90
10390;DHT22;5241;47.830;12.972;2022-07-12T06:43:50;23.30;99.90
10390;DHT22;5241;47.830;12.972;2022-07-12T06:46:16;23.10;99.90
10390;DHT22;5241;47.830;12.972;2022-07-12T06:48:41;23.00;99.90
10390;DHT22;5241;47.830;12.972;2022-07-12T06:51:07;23.20;99.90
10390;DHT22;5241;47.830;12.972;2022-07-12T06:53:32;23.00;99.90
10390;DHT22;5241;47.830;12.972;2022-07-12T06:55:58;22.80;98.80
10390;DHT22;5241;47.830;12.972;2022-07-12T06:58:23;22.60;99.90
10390;DHT22;5241;47.830;12.972;2022-07-12T07:00:49;22.10;99.90
10390;DHT22;5241;47.830;12.972;2022-07-12T07:03:14;22.10;99.90
10390;DHT22;5241;47.830;12.972;2022-07-12T07:05:40;21.70;99.90
10390;DHT22;5241;47.830;12.972;2022-07-12T07:08:05;21.90;99.90
10390;DHT22;5241;47.830;12.972;2022-07-12T07:10:31;22.00;99.90
10390;DHT22;5241;47.830;12.972;2022-07-12T07:12:57;22.10;99.90
10390;DHT22;5241;47.830;12.972;2022-07-12T07:15:22;22.70;99.90
10390;DHT22;5241;47.830;12.972;2022-07-12T07:17:48;23.00;99.90
10390;DHT22;5241;47.830;12.972;2022-07-12T07:20:13;23.00;99.90
10390;DHT22;5241;47.830;12.972;2022-07-12T07:22:39;23.10;99.40
10390;DHT22;5241;47.830;12.972;2022-07-12T07:25:05;23.00;98.90
10390;DHT22;5241;47.830;12.972;2022-07-12T07:27:31;22.50;98.80
10390;DHT22;5241;47.830;12.972;2022-07-12T07:29:57;22.50;99.60
10390;DHT22;5241;47.830;12.972;2022-07-12T07:32:41;22.90;99.90
10390;DHT22;5241;47.830;12.972;2022-07-12T07:35:08;22.80;99.10
10390;DHT22;5241;47.830;12.972;2022-07-12T07:37:34;22.70;98.70
10390;DHT22;5241;47.830;12.972;2022-07-12T07:39:59;22.50;99.60
10390;DHT22;5241;47.830;12.972;2022-07-12T07:42:25;22.90;99.20
10390;DHT22;5241;47.830;12.972;2022-07-12T07:44:50;23.70;98.50
10390;DHT22;5241;47.830;12.972;2022-07-12T07:47:16;24.30;95.60
10390;DHT22;5241;47.830;12.972;2022-07-12T07:49:41;25.50;92.60
10390;DHT22;5241;47.830;12.972;2022-07-12T07:52:07;25.80;90.70
10390;DHT22;5241;47.830;12.972;2022-07-12T07:54:33;25.60;88.10
10390;DHT22;5241;47.830;12.972;2022-07-12T07:56:58;25.60;87.30
10390;DHT22;5241;47.830;12.972;2022-07-12T07:59:24;26.20;86.60
10390;DHT22;5241;47.830;12.972;2022-07-12T08:01:49;26.40;84.10
10390;DHT22;5241;47.830;12.972;2022-07-12T08:04:18;26.10;84.10
10390;DHT22;5241;47.830;12.972;2022-07-12T08:06:45;25.80;84.80
10390;DHT22;5241;47.830;12.972;2022-07-12T08:09:11;24.90;89.90
10390;DHT22;5241;47.830;12.972;2022-07-12T08:11:37;23.80;92.10
10390;DHT22;5241;47.830;12.972;2022-07-12T08:14:03;23.40;93.30
10390;DHT22;5241;47.830;12.972;2022-07-12T08:16:29;23.30;95.30
10390;DHT22;5241;47.830;12.972;2022-07-12T08:18:55;23.50;95.20
10390;DHT22;5241;47.830;12.972;2022-07-12T08:21:21;23.10;94.70
10390;DHT22;5241;47.830;12.972;2022-07-12T08:23:46;23.30;96.20
10390;DHT22;5241;47.830;12.972;2022-07-12T08:26:12;23.50;95.60
10390;DHT22;5241;47.830;12.972;2022-07-12T08:28:37;23.70;95.60
10390;DHT22;5241;47.830;12.972;2022-07-12T08:31:03;23.10;97.00
10390;DHT22;5241;47.830;12.972;2022-07-12T08:33:29;22.50;98.50
10390;DHT22;5241;47.830;12.972;2022-07-12T08:35:54;22.10;99.90
10390;DHT22;5241;47.830;12.972;2022-07-12T08:38:20;22.10;99.90
10390;DHT22;5241;47.830;12.972;2022-07-12T08:40:45;21.90;99.90
10390;DHT22;5241;47.830;12.972;2022-07-12T08:43:11;21.80;99.90
10390;DHT22;5241;47.830;12.972;2022-07-12T08:45:37;21.90;99.90
10390;DHT22;5241;47.830;12.972;2022-07-12T08:48:02;22.20;99.90
10390;DHT22;5241;47.830;12.972;2022-07-12T08:50:28;22.60;99.90
10390;DHT22;5241;47.830;12.972;2022-07-12T08:52:55;22.90;99.90
10390;DHT22;5241;47.830;12.972;2022-07-12T08:55:33;22.90;99.90
10390;DHT22;5241;47.830;12.972;2022-07-12T08:58:01;23.00;99.90
10390;DHT22;5241;47.830;12.972;2022-07-12T09:00:34;23.70;99.40
10390;DHT22;5241;47.830;12.972;2022-07-12T09:03:01;24.00;96.30
10390;DHT22;5241;47.830;12.972;2022-07-12T09:05:29;24.30;95.80
10390;DHT22;5241;47.830;12.972;2022-07-12T09:08:09;24.90;91.80
10390;DHT22;5241;47.830;12.972;2022-07-12T09:11:21;25.00;92.60
10390;DHT22;5241;47.830;12.972;2022-07-12T09:16:18;23.90;95.40
10390;DHT22;5241;47.830;12.972;2022-07-12T09:18:44;23.60;95.90
10390;DHT22;5241;47.830;12.972;2022-07-12T09:21:21;24.00;94.00
10390;DHT22;5241;47.830;12.972;2022-07-12T09:23:55;23.90;95.10
10390;DHT22;5241;47.830;12.972;2022-07-12T09:26:21;23.50;97.10
10390;DHT22;5241;47.830;12.972;2022-07-12T09:28:49;23.30;95.90
10390;DHT22;5241;47.830;12.972;2022-07-12T09:31:16;23.10;98.80
10390;DHT22;5241;47.830;12.972;2022-07-12T09:33:41;22.70;99.50
10390;DHT22;5241;47.830;12.972;2022-07-12T09:36:42;22.40;99.90
10390;DHT22;5241;47.830;12.972;2022-07-12T09:39:19;22.10;99.90
10390;DHT22;5241;47.830;12.972;2022-07-12T09:41:45;22.10;99.90
10390;DHT22;5241;47.830;12.972;2022-07-12T09:44:11;22.40;99.90
10390;DHT22;5241;47.830;12.972;2022-07-12T09:46:36;23.10;99.90
10390;DHT22;5241;47.830;12.972;2022-07-12T09:49:03;23.40;98.50
10390;DHT22;5241;47.830;12.972;2022-07-12T09:51:31;23.70;97.30
10390;DHT22;5241;47.830;12.972;2022-07-12T09:54:00;23.90;97.80
10390;DHT22;5241;47.830;12.972;2022-07-12T09:56:27;23.70;97.10
10390;DHT22;5241;47.830;12.972;2022-07-12T09:58:55;23.40;97.50
10390;DHT22;5241;47.830;12.972;2022-07-12T10:01:23;23.30;99.30
10390;DHT22;5241;47.830;12.972;2022-07-12T10:03:50;23.20;98.10
10390;DHT22;5241;47.830;12.972;2022-07-12T10:06:28;23.40;98.30
10390;DHT22;5241;47.830;12.972;2022-07-12T10:08:55;23.10;98.10
10390;DHT22;5241;47.830;12.972;2022-07-12T10:11:25;22.90;99.10
10390;DHT22;5241;47.830;12.972;2022-07-12T10:13:51;23.00;98.20
10390;DHT22;5241;47.830;12.972;2022-07-12T10:16:25;22.90;99.90
10390;DHT22;5241;47.830;12.972;2022-07-12T10:19:24;23.00;99.90
10390;DHT22;5241;47.830;12.972;2022-07-12T10:21:51;23.60;97.20
10390;DHT22;5241;47.830;12.972;2022-07-12T10:29:47;24.10;96.40
10390;DHT22;5241;47.830;12.972;2022-07-12T10:32:32;23.90;97.40
10390;DHT22;5241;47.830;12.972;2022-07-12T10:35:12;23.70;97.00
10390;DHT22;5241;47.830;12.972;2022-07-12T10:37:38;24.30;97.20
10390;DHT22;5241;47.830;12.972;2022-07-12T10:40:20;24.50;97.70
10390;DHT22;5241;47.830;12.972;2022-07-12T10:45:37;25.40;91.70
10390;DHT22;5241;47.830;12.972;2022-07-12T10:48:05;24.80;91.40
10390;DHT22;5241;47.830;12.972;2022-07-12T10:53:34;23.80;96.00
10390;DHT22;5241;47.830;12.972;2022-07-12T11:01:09;22.50;99.80
10390;DHT22;5241;47.830;12.972;2022-07-12T11:03:48;22.70;99.10
10390;DHT22;5241;47.830;12.972;2022-07-12T11:06:19;22.80;99.90
10390;DHT22;5241;47.830;12.972;2022-07-12T11:11:15;23.60;98.70
10390;DHT22;5241;47.830;12.972;2022-07-12T11:13:40;24.60;95.40
10390;DHT22;5241;47.830;12.972;2022-07-12T11:16:06;25.70;93.80
10390;DHT22;5241;47.830;12.972;2022-07-12T11:18:33;26.40;89.70
10390;DHT22;5241;47.830;12.972;2022-07-12T11:21:00;27.00;84.90
10390;DHT22;5241;47.830;12.972;2022-07-12T11:23:26;27.80;85.80
10390;DHT22;5241;47.830;12.972;2022-07-12T11:26:11;26.30;80.50
10390;DHT22;5241;47.830;12.972;2022-07-12T11:28:39;25.20;88.30
10390;DHT22;5241;47.830;12.972;2022-07-12T11:31:07;24.50;91.50
10390;DHT22;5241;47.830;12.972;2022-07-12T11:33:35;24.00;93.90
10390;DHT22;5241;47.830;12.972;2022-07-12T11:36:09;23.60;92.10
10390;DHT22;5241;47.830;12.972;2022-07-12T11:38:36;23.30;95.20
10390;DHT22;5241;47.830;12.972;2022-07-12T11:41:04;22.90;95.70
10390;DHT22;5241;47.830;12.972;2022-07-12T11:43:31;23.00;96.70
10390;DHT22;5241;47.830;12.972;2022-07-12T11:45:57;23.20;95.10
10390;DHT22;5241;47.830;12.972;2022-07-12T11:48:23;23.70;96.00
10390;DHT22;5241;47.830;12.972;2022-07-12T11:50:53;23.70;94.20
10390;DHT22;5241;47.830;12.972;2022-07-12T11:53:23;24.60;93.50
10390;DHT22;5241;47.830;12.972;2022-07-12T11:55:51;25.70;89.30
10390;DHT22;5241;47.830;12.972;2022-07-12T11:58:18;26.80;85.10
10390;DHT22;5241;47.830;12.972;2022-07-12T12:00:45;27.60;82.20
10390;DHT22;5241;47.830;12.972;2022-07-12T12:03:11;28.20;77.70
10390;DHT22;5241;47.830;12.972;2022-07-12T12:05:37;28.40;75.70
10390;DHT22;5241;47.830;12.972;2022-07-12T12:08:07;27.80;77.50
10390;DHT22;5241;47.830;12.972;2022-07-12T12:10:33;26.50;77.20
10390;DHT22;5241;47.830;12.972;2022-07-12T12:13:00;26.00;82.00
10390;DHT22;5241;47.830;12.972;2022-07-12T12:15:32;26.20;81.70
10390;DHT22;5241;47.830;12.972;2022-07-12T12:18:03;26.60;80.60
10390;DHT22;5241;47.830;12.972;2022-07-12T12:20:33;27.50;77.20
10390;DHT22;5241;47.830;12.972;2022-07-12T12:23:00;27.70;76.70
10390;DHT22;5241;47.830;12.972;2022-07-12T12:25:28;27.80;75.80
10390;DHT22;5241;47.830;12.972;2022-07-12T12:27:59;27.40;73.20
10390;DHT22;5241;47.830;12.972;2022-07-12T12:30:26;27.90;72.40
10390;DHT22;5241;47.830;12.972;2022-07-12T12:33:02;28.30;74.30
10390;DHT22;5241;47.830;12.972;2022-07-12T12:35:36;27.90;72.80
10390;DHT22;5241;47.830;12.972;2022-07-12T12:40:31;28.30;69.80
10390;DHT22;5241;47.830;12.972;2022-07-12T12:45:32;28.10;69.10
10390;DHT22;5241;47.830;12.972;2022-07-12T12:48:05;27.90;70.00
10390;DHT22;5241;47.830;12.972;2022-07-12T12:50:43;28.10;69.20
10390;DHT22;5241;47.830;12.972;2022-07-12T12:53:10;27.80;69.00
10390;DHT22;5241;47.830;12.972;2022-07-12T12:55:36;27.50;71.10
10390;DHT22;5241;47.830;12.972;2022-07-12T12:58:02;27.80;70.00
10390;DHT22;5241;47.830;12.972;2022-07-12T13:00:29;26.80;70.60
10390;DHT22;5241;47.830;12.972;2022-07-12T13:02:56;26.50;69.40
10390;DHT22;5241;47.830;12.972;2022-07-12T13:05:25;27.30;68.90
10390;DHT22;5241;47.830;12.972;2022-07-12T13:07:51;26.60;67.30
10390;DHT22;5241;47.830;12.972;2022-07-12T13:10:17;27.10;69.10
10390;DHT22;5241;47.830;12.972;2022-07-12T13:12:42;27.80;67.50
10390;DHT22;5241;47.830;12.972;2022-07-12T13:15:08;27.60;67.90
10390;DHT22;5241;47.830;12.972;2022-07-12T13:17:34;27.90;66.80
10390;DHT22;5241;47.830;12.972;2022-07-12T13:19:59;27.60;67.30
10390;DHT22;5241;47.830;12.972;2022-07-12T13:22:25;25.80;68.30
10390;DHT22;5241;47.830;12.972;2022-07-12T13:24:51;24.50;72.00
10390;DHT22;5241;47.830;12.972;2022-07-12T13:27:16;24.10;75.30
10390;DHT22;5241;47.830;12.972;2022-07-12T13:29:42;25.30;75.40
10390;DHT22;5241;47.830;12.972;2022-07-12T13:32:07;26.80;70.90
10390;DHT22;5241;47.830;12.972;2022-07-12T13:34:33;27.60;68.10
10390;DHT22;5241;47.830;12.972;2022-07-12T13:36:58;28.10;64.70
10390;DHT22;5241;47.830;12.972;2022-07-12T13:39:24;28.40;64.60
10390;DHT22;5241;47.830;12.972;2022-07-12T13:42:08;28.60;63.50
10390;DHT22;5241;47.830;12.972;2022-07-12T13:44:33;27.90;63.50
10390;DHT22;5241;47.830;12.972;2022-07-12T13:46:59;27.50;64.30
10390;DHT22;5241;47.830;12.972;2022-07-12T13:49:24;26.60;66.70
10390;DHT22;5241;47.830;12.972;2022-07-12T13:51:50;26.30;67.70
10390;DHT22;5241;47.830;12.972;2022-07-12T13:54:15;26.90;68.60
10390;DHT22;5241;47.830;12.972;2022-07-12T13:56:41;28.00;65.10
10390;DHT22;5241;47.830;12.972;2022-07-12T13:59:07;27.80;64.20
10390;DHT22;5241;47.830;12.972;2022-07-12T14:01:32;28.50;63.60
10390;DHT22;5241;47.830;12.972;2022-07-12T14:03:58;27.20;62.00
10390;DHT22;5241;47.830;12.972;2022-07-12T14:06:23;27.20;64.40
10390;DHT22;5241;47.830;12.972;2022-07-12T14:08:51;28.10;60.40
10390;DHT22;5241;47.830;12.972;2022-07-12T14:11:17;27.90;61.00
10390;DHT22;5241;47.830;12.972;2022-07-12T14:13:42;28.30;61.90
10390;DHT22;5241;47.830;12.972;2022-07-12T14:16:08;28.50;62.00
10390;DHT22;5241;47.830;12.972;2022-07-12T14:18:33;28.50;62.00
10390;DHT22;5241;47.830;12.972;2022-07-12T14:20:59;28.40;59.60
10390;DHT22;5241;47.830;12.972;2022-07-12T14:23:25;28.00;60.00
10390;DHT22;5241;47.830;12.972;2022-07-12T14:25:50;28.40;59.90
10390;DHT22;5241;47.830;12.972;2022-07-12T14:28:16;27.50;63.30
10390;DHT22;5241;47.830;12.972;2022-07-12T14:30:41;26.50;65.50
10390;DHT22;5241;47.830;12.972;2022-07-12T14:33:07;25.70;66.30
10390;DHT22;5241;47.830;12.972;2022-07-12T14:35:32;26.50;66.70
10390;DHT22;5241;47.830;12.972;2022-07-12T14:37:58;28.00;63.00
10390;DHT22;5241;47.830;12.972;2022-07-12T14:40:23;28.30;58.20
10390;DHT22;5241;47.830;12.972;2022-07-12T14:42:49;27.30;62.40
10390;DHT22;5241;47.830;12.972;2022-07-12T14:45:14;27.00;62.90
10390;DHT22;5241;47.830;12.972;2022-07-12T14:47:40;26.30;63.00
10390;DHT22;5241;47.830;12.972;2022-07-12T14:50:06;25.50;64.60
10390;DHT22;5241;47.830;12.972;2022-07-12T14:52:33;25.10;67.20
10390;DHT22;5241;47.830;12.972;2022-07-12T14:54:58;24.80;67.20
10390;DHT22;5241;47.830;12.972;2022-07-12T14:57:24;25.60;64.50
10390;DHT22;5241;47.830;12.972;2022-07-12T14:59:50;26.70;65.20
10390;DHT22;5241;47.830;12.972;2022-07-12T15:02:15;27.50;62.90
10390;DHT22;5241;47.830;12.972;2022-07-12T15:04:42;27.50;62.30
10390;DHT22;5241;47.830;12.972;2022-07-12T15:07:07;26.30;61.20
10390;DHT22;5241;47.830;12.972;2022-07-12T15:09:33;25.50;64.00
10390;DHT22;5241;47.830;12.972;2022-07-12T15:11:59;24.80;66.10
10390;DHT22;5241;47.830;12.972;2022-07-12T15:14:28;24.20;68.20
10390;DHT22;5241;47.830;12.972;2022-07-12T15:16:53;24.70;68.30
10390;DHT22;5241;47.830;12.972;2022-07-12T15:19:19;26.30;64.60
10390;DHT22;5241;47.830;12.972;2022-07-12T15:21:44;27.30;61.60
10390;DHT22;5241;47.830;12.972;2022-07-12T15:24:10;28.00;60.50
10390;DHT22;5241;47.830;12.972;2022-07-12T15:26:35;27.90;60.00
10390;DHT22;5241;47.830;12.972;2022-07-12T15:29:03;27.90;57.70
10390;DHT22;5241;47.830;12.972;2022-07-12T15:31:30;28.10;58.10
10390;DHT22;5241;47.830;12.972;2022-07-12T15:33:57;28.00;58.40
10390;DHT22;5241;47.830;12.972;2022-07-12T15:36:22;28.50;58.30
10390;DHT22;5241;47.830;12.972;2022-07-12T15:38:48;28.70;57.40
10390;DHT22;5241;47.830;12.972;2022-07-12T15:41:13;28.60;57.10
10390;DHT22;5241;47.830;12.972;2022-07-12T15:43:40;28.70;56.30
10390;DHT22;5241;47.830;12.972;2022-07-12T15:46:10;28.50;55.60
10390;DHT22;5241;47.830;12.972;2022-07-12T15:48:36;28.50;56.10
10390;DHT22;5241;47.830;12.972;2022-07-12T15:51:03;28.40;56.30
10390;DHT22;5241;47.830;12.972;2022-07-12T15:53:28;28.40;57.30
10390;DHT22;5241;47.830;12.972;2022-07-12T15:55:56;29.00;55.10